sensor_id;sensor_type;location;lat;lon;timestamp;temperature;humidity
35633;DHT22;21754;48.216;-1.628;2023-02-28T02:56:32;3.00;99.90
35633;DHT22;21754;48.216;-1.628;2023-02-28T02:59:03;2.90;99.90
35633;DHT22;21754;48.216;-1.628;2023-02-28T03:01:31;2.90;99.90
35633;DHT22;21754;48.216;-1.628;2023-02-28T03:03:59;2.90;99.90
35633;DHT22;21754;48.216;-1.628;2023-02-28T03:17:02;2.50;99.90
35633;DHT22;21754;48.216;-1.628;2023-02-28T03:22:39;2.50;99.90
35633;DHT22;21754;48.216;-1.628;2023-02-28T03:28:18;2.40;99.90
35633;DHT22;21754;48.216;-1.628;2023-02-28T03:30:51;2.40;99.90
35633;DHT22;21754;48.216;-1.628;2023-02-28T03:36:05;2.40;99.90
35633;DHT22;21754;48.216;-1.628;2023-02-28T03:38:40;2.40;99.90
35633;DHT22;21754;48.216;-1.628;2023-02-28T03:41:15;2.50;99.90
35633;DHT22;21754;48.216;-1.628;2023-02-28T03:43:47;2.40;99.90
35633;DHT22;21754;48.216;-1.628;2023-02-28T03:46:16;2.40;99.90
35633;DHT22;21754;48.216;-1.628;2023-02-28T03:48:55;2.40;99.90
35633;DHT22;21754;48.216;-1.628;2023-02-28T09:31:30;2.40;99.90
35633;DHT22;21754;48.216;-1.628;2023-02-28T09:33:57;5.20;99.90
35633;DHT22;21754;48.216;-1.628;2023-02-28T09:36:24;5.10;99.90
35633;DHT22;21754;48.216;-1.628;2023-02-28T10:12:58;5.90;99.90
35633;DHT22;21754;48.216;-1.628;2023-02-28T10:15:26;5.90;99.90
35633;DHT22;21754;48.216;-1.628;2023-02-28T10:18:03;5.90;99.90
35633;DHT22;21754;48.216;-1.628;2023-02-28T10:20:33;6.10;99.90
35633;DHT22;21754;48.216;-1.628;2023-02-28T10:23:02;6.00;99.90
35633;DHT22;21754;48.216;-1.628;2023-02-28T10:25:35;6.10;99.90
35633;DHT22;21754;48.216;-1.628;2023-02-28T10:28:10;6.20;99.90
35633;DHT22;21754;48.216;-1.628;2023-02-28T10:30:40;6.30;99.90
35633;DHT22;21754;48.216;-1.628;2023-02-28T10:33:21;6.20;99.90
35633;DHT22;21754;48.216;-1.628;2023-02-28T10:35:47;6.00;99.90
35633;DHT22;21754;48.216;-1.628;2023-02-28T10:38:20;6.50;99.90
35633;DHT22;21754;48.216;-1.628;2023-02-28T10:40:47;6.70;99.90
35633;DHT22;21754;48.216;-1.628;2023-02-28T10:45:38;6.40;99.90
35633;DHT22;21754;48.216;-1.628;2023-02-28T11:06:21;6.60;99.90
35633;DHT22;21754;48.216;-1.628;2023-02-28T11:08:50;6.90;99.90
35633;DHT22;21754;48.216;-1.628;2023-02-28T11:11:17;6.80;99.90
35633;DHT22;21754;48.216;-1.628;2023-02-28T11:13:45;6.90;99.90
35633;DHT22;21754;48.216;-1.628;2023-02-28T11:16:13;7.10;99.90
35633;DHT22;21754;48.216;-1.628;2023-02-28T11:18:47;7.20;99.90
35633;DHT22;21754;48.216;-1.628;2023-02-28T18:51:22;7.10;99.90
35633;DHT22;21754;48.216;-1.628;2023-02-28T18:53:49;7.30;99.90
35633;DHT22;21754;48.216;-1.628;2023-02-28T18:56:18;7.50;99.90
35633;DHT22;21754;48.216;-1.628;2023-02-28T18:58:44;7.70;99.90
35633;DHT22;21754;48.216;-1.628;2023-02-28T19:01:22;7.90;99.90
35633;DHT22;21754;48.216;-1.628;2023-02-28T19:03:48;7.80;99.90
35633;DHT22;21754;48.216;-1.628;2023-02-28T19:06:15;7.60;99.90
35633;DHT22;21754;48.216;-1.628;2023-02-28T19:08:41;7.30;99.90
35633;DHT22;21754;48.216;-1.628;2023-02-28T19:13:37;7.10;99.90
35633;DHT22;21754;48.216;-1.628;2023-02-28T19:16:05;6.70;99.90
35633;DHT22;21754;48.216;-1.628;2023-02-28T19:18:31;6.60;99.90
35633;DHT22;21754;48.216;-1.628;2023-02-28T19:20:57;6.60;99.90
35633;DHT22;21754;48.216;-1.628;2023-02-28T19:23:23;6.60;99.90
35633;DHT22;21754;48.216;-1.628;2023-02-28T19:25:49;6.60;99.90
35633;DHT22;21754;48.216;-1.628;2023-02-28T19:28:14;6.60;99.90
35633;DHT22;21754;48.216;-1.628;2023-02-28T19:30:46;6.60;99.90
35633;DHT22;21754;48.216;-1.628;2023-02-28T19:33:12;6.60;99.90
35633;DHT22;21754;48.216;-1.628;2023-02-28T19:35:39;6.60;99.90
35633;DHT22;21754;48.216;-1.628;2023-02-28T19:38:06;6.60;99.90
35633;DHT22;21754;48.216;-1.628;2023-02-28T19:40:31;6.80;99.90
35633;DHT22;21754;48.216;-1.628;2023-02-28T19:42:57;6.60;99.90
35633;DHT22;21754;48.216;-1.628;2023-02-28T19:45:22;6.70;99.90
35633;DHT22;21754;48.216;-1.628;2023-02-28T19:47:48;6.70;99.90
35633;DHT22;21754;48.216;-1.628;2023-02-28T19:50:14;6.90;99.90
35633;DHT22;21754;48.216;-1.628;2023-02-28T19:52:40;6.60;99.90
35633;DHT22;21754;48.216;-1.628;2023-02-28T19:55:08;6.70;99.90
35633;DHT22;21754;48.216;-1.628;2023-02-28T19:57:34;6.60;99.90
35633;DHT22;21754;48.216;-1.628;2023-02-28T20:00:00;6.50;99.90
35633;DHT22;21754;48.216;-1.628;2023-02-28T20:02:25;6.50;99.90
35633;DHT22;21754;48.216;-1.628;2023-02-28T20:04:51;6.50;99.90
35633;DHT22;21754;48.216;-1.628;2023-02-28T20:07:18;6.60;99.90
35633;DHT22;21754;48.216;-1.628;2023-02-28T20:09:47;6.50;99.90
35633;DHT22;21754;48.216;-1.628;2023-02-28T20:12:13;6.50;99.90
35633;DHT22;21754;48.216;-1.628;2023-02-28T20:14:41;6.20;99.90
35633;DHT22;21754;48.216;-1.628;2023-02-28T20:17:06;6.10;99.90
35633;DHT22;21754;48.216;-1.628;2023-02-28T20:19:32;6.30;99.90
35633;DHT22;21754;48.216;-1.628;2023-02-28T20:26:52;5.80;99.90
35633;DHT22;21754;48.216;-1.628;2023-02-28T20:29:18;5.70;99.90
35633;DHT22;21754;48.216;-1.628;2023-02-28T20:31:43;5.80;99.90
35633;DHT22;21754;48.216;-1.628;2023-02-28T20:34:09;5.50;99.90
35633;DHT22;21754;48.216;-1.628;2023-02-28T20:58:41;5.40;99.90
35633;DHT22;21754;48.216;-1.628;2023-02-28T21:01:12;5.60;99.90
35633;DHT22;21754;48.216;-1.628;2023-02-28T21:03:48;5.20;99.90
35633;DHT22;21754;48.216;-1.628;2023-02-28T21:06:15;5.40;99.90
35633;DHT22;21754;48.216;-1.628;2023-02-28T21:08:42;5.20;99.90
35633;DHT22;21754;48.216;-1.628;2023-02-28T21:11:24;5.20;99.90
35633;DHT22;21754;48.216;-1.628;2023-02-28T21:13:51;5.10;99.90
35633;DHT22;21754;48.216;-1.628;2023-02-28T21:16:19;5.10;99.90
35633;DHT22;21754;48.216;-1.628;2023-02-28T21:18:46;5.40;99.90
35633;DHT22;21754;48.216;-1.628;2023-02-28T21:21:18;5.00;99.90
35633;DHT22;21754;48.216;-1.628;2023-02-28T21:23:44;5.30;99.90
35633;DHT22;21754;48.216;-1.628;2023-02-28T21:26:13;5.20;99.90
35633;DHT22;21754;48.216;-1.628;2023-02-28T21:28:40;5.00;99.90
35633;DHT22;21754;48.216;-1.628;2023-02-28T21:31:11;4.90;99.90
35633;DHT22;21754;48.216;-1.628;2023-02-28T21:33:37;4.90;99.90
35633;DHT22;21754;48.216;-1.628;2023-02-28T21:36:05;4.80;99.90
35633;DHT22;21754;48.216;-1.628;2023-02-28T21:38:32;4.80;99.90
35633;DHT22;21754;48.216;-1.628;2023-02-28T21:41:04;4.70;99.90
35633;DHT22;21754;48.216;-1.628;2023-02-28T21:43:30;4.70;99.90
35633;DHT22;21754;48.216;-1.628;2023-02-28T21:46:00;4.70;99.90
35633;DHT22;21754;48.216;-1.628;2023-02-28T21:48:25;4.90;99.90
35633;DHT22;21754;48.216;-1.628;2023-02-28T21:51:05;5.00;99.90
35633;DHT22;21754;48.216;-1.628;2023-02-28T21:53:33;4.60;99.90
35633;DHT22;21754;48.216;-1.628;2023-02-28T21:56:04;4.60;99.90
35633;DHT22;21754;48.216;-1.628;2023-02-28T21:58:30;4.60;99.90
35633;DHT22;21754;48.216;-1.628;2023-02-28T22:01:16;4.70;99.90
35633;DHT22;21754;48.216;-1.628;2023-02-28T22:03:42;4.90;99.90
35633;DHT22;21754;48.216;-1.628;2023-02-28T22:06:14;4.60;99.90
35633;DHT22;21754;48.216;-1.628;2023-02-28T22:08:42;4.60;99.90
35633;DHT22;21754;48.216;-1.628;2023-02-28T22:11:08;4.70;99.90
35633;DHT22;21754;48.216;-1.628;2023-02-28T22:13:35;5.00;99.90
35633;DHT22;21754;48.216;-1.628;2023-02-28T22:16:09;4.80;99.90
35633;DHT22;21754;48.216;-1.628;2023-02-28T22:18:36;4.80;99.90
35633;DHT22;21754;48.216;-1.628;2023-02-28T22:21:03;4.70;99.90
35633;DHT22;21754;48.216;-1.628;2023-02-28T22:23:29;4.70;99.90
35633;DHT22;21754;48.216;-1.628;2023-02-28T22:25:55;4.80;99.90
35633;DHT22;21754;48.216;-1.628;2023-02-28T22:28:21;4.70;99.90
35633;DHT22;21754;48.216;-1.628;2023-02-28T22:30:48;5.10;99.90
35633;DHT22;21754;48.216;-1.628;2023-02-28T22:33:16;5.00;99.90
35633;DHT22;21754;48.216;-1.628;2023-02-28T22:35:42;5.10;99.90
35633;DHT22;21754;48.216;-1.628;2023-02-28T22:38:08;4.70;99.90
35633;DHT22;21754;48.216;-1.628;2023-02-28T22:52:48;4.60;99.90
35633;DHT22;21754;48.216;-1.628;2023-02-28T22:55:13;4.80;99.90
35633;DHT22;21754;48.216;-1.628;2023-02-28T22:57:39;4.70;99.90
35633;DHT22;21754;48.216;-1.628;2023-02-28T23:00:07;4.40;99.90
35633;DHT22;21754;48.216;-1.628;2023-02-28T23:07:26;4.30;99.90
